Observation data for Morton on 01/19/2019      Previous  Date  Next       Current Mesonet Observations  Soil Data  Daily Summary Page  Observations in Plain Language
KMNS 190600Z 34021G28KT 01/M01 A301 RMK A01 T00131008  RH  086%=      5-min Rain = 0
KMNS 190605Z 34020G26KT 01/M01 A301 RMK A01 T00131008  RH  086%=      5-min Rain = 0
KMNS 190610Z 34024G31KT 01/M01 A301 RMK A01 T00141010  RH  085%=      5-min Rain = 0
KMNS 190615Z 34022G31KT 01/M01 A301 RMK A01 T00121014  RH  083%=      5-min Rain = 0
KMNS 190620Z 34024G30KT 01/M02 A301 RMK A01 T00111016  RH  083%=      5-min Rain = 0
KMNS 190625Z 35023G29KT 01/M02 A301 RMK A01 T00111018  RH  082%=      5-min Rain = 0
KMNS 190630Z 34019G25KT 01/M02 A3011 RMK A01 T00101019  RH  082%=      5-min Rain = 0
KMNS 190635Z 34017G23KT 01/M02 A3011 RMK A01 T00091018  RH  083%=      5-min Rain = 0
KMNS 190640Z 34015G20KT 01/M02 A3012 RMK A01 T00081017  RH  084%=      5-min Rain = 0
KMNS 190645Z 33015G21KT 01/M02 A3012 RMK A01 T00081016  RH  085%=      5-min Rain = 0
KMNS 190650Z 33015G23KT 01/M02 A3012 RMK A01 T00091015  RH  084%=      5-min Rain = 0
KMNS 190655Z 33014G20KT 01/M02 A3013 RMK A01 T00091016  RH  084%=      5-min Rain = 0
KMNS 190700Z 33016G22KT 01/M02 A3013 RMK A01 T00101017  RH  083%=      5-min Rain = 0
KMNS 190705Z 34019G24KT 01/M02 A3014 RMK A01 T00101021  RH  081%=      5-min Rain = 0
KMNS 190710Z 34019G25KT 01/M02 A3014 RMK A01 T00101024  RH  079%=      5-min Rain = 0
KMNS 190715Z 34018G25KT 01/M02 A3014 RMK A01 T00091024  RH  079%=      5-min Rain = 0
KMNS 190720Z 33015G21KT 01/M02 A3014 RMK A01 T00081023  RH  080%=      5-min Rain = 0
KMNS 190725Z 33018G24KT 01/M02 A3014 RMK A01 T00081023  RH  081%=      5-min Rain = 0
KMNS 190730Z 33017G22KT 01/M02 A3014 RMK A01 T00071024  RH  080%=      5-min Rain = 0
KMNS 190735Z 33016G21KT 01/M02 A3014 RMK A01 T00061024  RH  081%=      5-min Rain = 0
KMNS 190740Z 33016G21KT 01/M02 A3014 RMK A01 T00051024  RH  081%=      5-min Rain = 0
KMNS 190745Z 33017G22KT 01/M02 A3015 RMK A01 T00061024  RH  081%=      5-min Rain = 0
KMNS 190750Z 33019G24KT 01/M03 A3015 RMK A01 T00061025  RH  080%=      5-min Rain = 0
KMNS 190755Z 34017G22KT 01/M03 A3015 RMK A01 T00061025  RH  080%=      5-min Rain = 0
KMNS 190800Z 34018KT 01/M03 A3015 RMK A01 T00071025  RH  080%=      5-min Rain = 0
KMNS 190805Z 34015G21KT 01/M03 A3015 RMK A01 T00061025  RH  080%=      5-min Rain = 0
KMNS 190810Z 33015G21KT 01/M03 A3015 RMK A01 T00051025  RH  081%=      5-min Rain = 0
KMNS 190815Z 34016G21KT 01/M03 A3015 RMK A01 T00051025  RH  081%=      5-min Rain = 0
KMNS 190820Z 34015KT 01/M03 A3015 RMK A01 T00061026  RH  080%=      5-min Rain = 0
KMNS 190825Z 34015KT 01/M03 A3016 RMK A01 T00051025  RH  081%=      5-min Rain = 0
KMNS 190830Z 34015G21KT 01/M03 A3016 RMK A01 T00051026  RH  080%=      5-min Rain = 0
KMNS 190835Z 34015G21KT 01/M03 A3016 RMK A01 T00061026  RH  080%=      5-min Rain = 0
KMNS 190840Z 33015KT 01/M03 A3016 RMK A01 T00051026  RH  080%=      5-min Rain = 0
KMNS 190845Z 33016KT 01/M03 A3016 RMK A01 T00051027  RH  080%=      5-min Rain = 0
KMNS 190850Z 33017G22KT 01/M03 A3016 RMK A01 T00061027  RH  079%=      5-min Rain = 0
KMNS 190855Z 33016KT 01/M03 A3017 RMK A01 T00061028  RH  079%=      5-min Rain = 0
KMNS 190900Z 33016G21KT 01/M03 A3017 RMK A01 T00061028  RH  079%=      5-min Rain = 0
KMNS 190905Z 33015KT 01/M03 A3017 RMK A01 T00051028  RH  079%=      5-min Rain = 0
KMNS 190910Z 33014KT 01/M03 A3017 RMK A01 T00051029  RH  079%=      5-min Rain = 0
KMNS 190915Z 33013KT 00/M03 A3017 RMK A01 T00041029  RH  079%=      5-min Rain = 0
KMNS 190920Z 33012G17KT 00/M03 A3017 RMK A01 T00031029  RH  079%=      5-min Rain = 0
KMNS 190925Z 32013KT 00/M03 A3017 RMK A01 T00041029  RH  079%=      5-min Rain = 0
KMNS 190930Z 32012KT 00/M03 A3017 RMK A01 T00031030  RH  079%=      5-min Rain = 0
KMNS 190935Z 32013KT 00/M03 A3018 RMK A01 T00021029  RH  080%=      5-min Rain = 0
KMNS 190940Z 32013KT 00/M03 A3018 RMK A01 T00021029  RH  080%=      5-min Rain = 0
KMNS 190945Z 32013KT 00/M03 A3018 RMK A01 T00031029  RH  080%=      5-min Rain = 0
KMNS 190950Z 32012KT 00/M03 A3019 RMK A01 T00041029  RH  079%=      5-min Rain = 0
KMNS 190955Z 31013KT 00/M03 A3019 RMK A01 T00031029  RH  080%=      5-min Rain = 0
KMNS 191000Z 31012G17KT 00/M03 A3019 RMK A01 T00031029  RH  079%=      5-min Rain = 0
KMNS 191005Z 30012KT 00/M03 A3019 RMK A01 T00031029  RH  080%=      5-min Rain = 0
KMNS 191010Z 31012KT 00/M03 A302 RMK A01 T00031029  RH  079%=      5-min Rain = 0
KMNS 191015Z 31011KT 00/M03 A302 RMK A01 T00031029  RH  079%=      5-min Rain = 0
KMNS 191020Z 31011KT 00/M03 A302 RMK A01 T00031029  RH  079%=      5-min Rain = 0
KMNS 191025Z 31010KT 00/M03 A302 RMK A01 T00031030  RH  079%=      5-min Rain = 0
KMNS 191030Z 31009KT 00/M03 A302 RMK A01 T00031030  RH  079%=      5-min Rain = 0
KMNS 191035Z 31009KT 00/M03 A302 RMK A01 T00031031  RH  079%=      5-min Rain = 0
KMNS 191040Z 30008KT 00/M03 A302 RMK A01 T00011032  RH  079%=      5-min Rain = 0
KMNS 191045Z 30009KT 00/M03 A302 RMK A01 T00011031  RH  079%=      5-min Rain = 0
KMNS 191050Z 31007KT 00/03 A302 RMK A01 T00-00-33  RH  079%=      5-min Rain = 0
KMNS 191055Z 32008KT M00/M03 A302 RMK A01 T10021034  RH  080%=      5-min Rain = 0
KMNS 191100Z 32008KT M00/M03 A302 RMK A01 T10011033  RH  079%=      5-min Rain = 0
KMNS 191105Z 32009KT M00/M03 A302 RMK A01 T10011034  RH  079%=      5-min Rain = 0
KMNS 191110Z 32010KT 00/03 A302 RMK A01 T00000-34  RH  078%=      5-min Rain = 0
KMNS 191115Z 32010KT 00/M03 A3019 RMK A01 T00011034  RH  078%=      5-min Rain = 0
KMNS 191120Z 32011KT 00/M03 A3019 RMK A01 T00021034  RH  077%=      5-min Rain = 0
KMNS 191125Z 33011KT 00/M04 A3019 RMK A01 T00041035  RH  076%=      5-min Rain = 0
KMNS 191130Z 32011KT 00/M04 A3019 RMK A01 T00041035  RH  075%=      5-min Rain = 0
KMNS 191135Z 32011KT 00/M04 A3019 RMK A01 T00011036  RH  076%=      5-min Rain = 0
KMNS 191140Z 32011KT 00/M04 A3019 RMK A01 T00011037  RH  076%=      5-min Rain = 0
KMNS 191145Z 32010KT 00/04 A302 RMK A01 T00-00-37  RH  077%=      5-min Rain = 0
KMNS 191150Z 32010KT M00/M04 A302 RMK A01 T10031038  RH  078%=      5-min Rain = 0
KMNS 191155Z 31009KT M01/M04 A302 RMK A01 T10051038  RH  078%=      5-min Rain = 0
KMNS 191200Z 31009KT M01/M04 A3021 RMK A01 T10071039  RH  079%=      5-min Rain = 0
KMNS 191205Z 31009KT M01/M04 A3021 RMK A01 T10081039  RH  080%=      5-min Rain = 0
KMNS 191210Z 31010KT M01/M04 A3021 RMK A01 T10091039  RH  080%=      5-min Rain = 0
KMNS 191215Z 32010KT M01/M04 A3021 RMK A01 T10091039  RH  080%=      5-min Rain = 0
KMNS 191220Z 32011KT M01/M04 A3022 RMK A01 T10071038  RH  080%=      5-min Rain = 0
KMNS 191225Z 32011KT M00/M04 A3022 RMK A01 T10041038  RH  079%=      5-min Rain = 0
KMNS 191230Z 32011KT M00/M04 A3022 RMK A01 T10041038  RH  078%=      5-min Rain = 0
KMNS 191235Z 32011KT M01/M04 A3023 RMK A01 T10051039  RH  078%=      5-min Rain = 0
KMNS 191240Z 33011KT M00/M04 A3023 RMK A01 T10041038  RH  078%=      5-min Rain = 0
KMNS 191245Z 32011KT M00/M04 A3023 RMK A01 T10021038  RH  077%=      5-min Rain = 0
KMNS 191250Z 32010KT M00/M04 A3024 RMK A01 T10031038  RH  077%=      5-min Rain = 0
KMNS 191255Z 31009KT M00/M04 A3024 RMK A01 T10021038  RH  077%=      5-min Rain = 0
KMNS 191300Z 31008KT M00/M04 A3024 RMK A01 T10041039  RH  077%=      5-min Rain = 0
KMNS 191305Z 31008KT M00/M04 A3025 RMK A01 T10041039  RH  078%=      5-min Rain = 0
KMNS 191310Z 31007KT M01/M04 A3025 RMK A01 T10051040  RH  078%=      5-min Rain = 0
KMNS 191315Z 31007KT M01/M04 A3025 RMK A01 T10051040  RH  078%=      5-min Rain = 0
KMNS 191320Z 31007KT M00/M04 A3026 RMK A01 T10041040  RH  077%=      5-min Rain = 0
KMNS 191325Z 30007KT M00/M04 A3026 RMK A01 T10031039  RH  077%=      5-min Rain = 0
KMNS 191330Z 30007KT M00/M04 A3026 RMK A01 T10031039  RH  077%=      5-min Rain = 0
KMNS 191335Z 30006KT M00/M04 A3027 RMK A01 T10041040  RH  077%=      5-min Rain = 0
KMNS 191340Z 29006KT M01/M04 A3027 RMK A01 T10061040  RH  078%=      5-min Rain = 0
KMNS 191345Z 30007KT M01/M04 A3027 RMK A01 T10061039  RH  079%=      5-min Rain = 0
KMNS 191350Z 31007KT M01/M04 A3027 RMK A01 T10091043  RH  079%=      5-min Rain = 0
KMNS 191355Z 30006KT M01/M04 A3027 RMK A01 T10111042  RH  080%=      5-min Rain = 0
KMNS 191400Z 30006KT M01/M04 A3027 RMK A01 T10121042  RH  080%=      5-min Rain = 0
KMNS 191405Z 30006KT M01/M04 A3027 RMK A01 T10101041  RH  080%=      5-min Rain = 0
KMNS 191410Z 30007KT M01/M04 A3027 RMK A01 T10091041  RH  080%=      5-min Rain = 0
KMNS 191415Z 30007KT M01/M04 A3027 RMK A01 T10091041  RH  079%=      5-min Rain = 0
KMNS 191420Z 31007KT M01/M04 A3027 RMK A01 T10071040  RH  079%=      5-min Rain = 0
KMNS 191425Z 31008KT M00/M04 A3028 RMK A01 T10041039  RH  078%=      5-min Rain = 0
KMNS 191430Z 31008KT M00/M04 A3028 RMK A01 T10011037  RH  077%=      5-min Rain = 0
KMNS 191435Z 31008KT 00/M04 A3028 RMK A01 T00011036  RH  076%=      5-min Rain = 0
KMNS 191440Z 31006KT 00/M04 A3028 RMK A01 T00031035  RH  076%=      5-min Rain = 0
KMNS 191445Z 31007KT 01/M03 A3029 RMK A01 T00061033  RH  076%=      5-min Rain = 0
KMNS 191450Z 31007KT 01/M03 A3029 RMK A01 T00081032  RH  075%=      5-min Rain = 0
KMNS 191455Z 31007KT 01/M03 A303 RMK A01 T00111031  RH  074%=      5-min Rain = 0
KMNS 191500Z 30007KT 01/M03 A303 RMK A01 T00131030  RH  073%=      5-min Rain = 0
KMNS 191505Z 30008KT 02/M03 A303 RMK A01 T00161029  RH  072%=      5-min Rain = 0
KMNS 191510Z 30008KT 02/M03 A303 RMK A01 T00191029  RH  071%=      5-min Rain = 0
KMNS 191515Z 31008KT 02/M03 A303 RMK A01 T00211027  RH  071%=      5-min Rain = 0
KMNS 191520Z 31010KT 02/M03 A3031 RMK A01 T00231027  RH  070%=      5-min Rain = 0
KMNS 191525Z 30008KT 03/M02 A3031 RMK A01 T00261024  RH  070%=      5-min Rain = 0
KMNS 191530Z 30009KT 03/M03 A3031 RMK A01 T00291025  RH  068%=      5-min Rain = 0
KMNS 191535Z 30008KT 03/M02 A3031 RMK A01 T00321021  RH  068%=      5-min Rain = 0
KMNS 191540Z 30008KT 03/M02 A3031 RMK A01 T00341020  RH  068%=      5-min Rain = 0
KMNS 191545Z 30009KT 04/M02 A3031 RMK A01 T00371019  RH  068%=      5-min Rain = 0
KMNS 191550Z 30009KT 04/M02 A3032 RMK A01 T00401017  RH  067%=      5-min Rain = 0
KMNS 191555Z 30010KT 04/M02 A3032 RMK A01 T00421017  RH  066%=      5-min Rain = 0
KMNS 191600Z 30009KT 05/M01 A3032 RMK A01 T00451014  RH  066%=      5-min Rain = 0
KMNS 191605Z 30010KT 05/M01 A3032 RMK A01 T00501012  RH  065%=      5-min Rain = 0
KMNS 191610Z 30011KT 05/M01 A3032 RMK A01 T00541014  RH  062%=      5-min Rain = 0
KMNS 191615Z 31012G17KT 06/M02 A3032 RMK A01 T00561017  RH  060%=      5-min Rain = 0
KMNS 191620Z 32013KT 06/M02 A3032 RMK A01 T00591016  RH  059%=      5-min Rain = 0
KMNS 191625Z 32013KT 06/M02 A3032 RMK A01 T00601017  RH  058%=      5-min Rain = 0
KMNS 191630Z 33013KT 06/M02 A3032 RMK A01 T00631016  RH  058%=      5-min Rain = 0
KMNS 191635Z 33015KT 06/M02 A3032 RMK A01 T00641017  RH  057%=      5-min Rain = 0
KMNS 191640Z 34016KT 07/M02 A3032 RMK A01 T00651019  RH  056%=      5-min Rain = 0
KMNS 191645Z 33015KT 07/M02 A3032 RMK A01 T00681018  RH  055%=      5-min Rain = 0
KMNS 191650Z 34014G21KT 07/M02 A3032 RMK A01 T00701018  RH  054%=      5-min Rain = 0
KMNS 191655Z 34016KT 07/M02 A3032 RMK A01 T00721020  RH  052%=      5-min Rain = 0
KMNS 191700Z 35018G23KT 07/M02 A3032 RMK A01 T00721023  RH  051%=      5-min Rain = 0
KMNS 191705Z 34016KT 07/M02 A3032 RMK A01 T00731024  RH  051%=      5-min Rain = 0
KMNS 191710Z 35016KT 07/M02 A3032 RMK A01 T00741023  RH  051%=      5-min Rain = 0
KMNS 191715Z 35015KT 08/M02 A3032 RMK A01 T00781020  RH  050%=      5-min Rain = 0
KMNS 191720Z 35016G21KT 08/M02 A3032 RMK A01 T00771022  RH  050%=      5-min Rain = 0
KMNS 191725Z 35016KT 08/M02 A3032 RMK A01 T00791023  RH  049%=      5-min Rain = 0
KMNS 191730Z 34015KT 08/M02 A3032 RMK A01 T00791024  RH  048%=      5-min Rain = 0
KMNS 191735Z 34016KT 08/M03 A3032 RMK A01 T00801025  RH  048%=      5-min Rain = 0
KMNS 191740Z 35017KT 08/M03 A3032 RMK A01 T00821025  RH  047%=      5-min Rain = 0
KMNS 191745Z 35015KT 08/M02 A3033 RMK A01 T00831024  RH  047%=      5-min Rain = 0
KMNS 191750Z 34014G19KT 08/M03 A3033 RMK A01 T00841025  RH  046%=      5-min Rain = 0
KMNS 191755Z 34014KT 09/M03 A3032 RMK A01 T00861025  RH  046%=      5-min Rain = 0
KMNS 191800Z 35013G20KT 09/M03 A3032 RMK A01 T00861025  RH  046%=      5-min Rain = 0
KMNS 191805Z 34012KT 09/M02 A3032 RMK A01 T00891024  RH  045%=      5-min Rain = 0
KMNS 191810Z 35013KT 09/M03 A3032 RMK A01 T00891026  RH  045%=      5-min Rain = 0
KMNS 191815Z 35011G16KT 09/M02 A3032 RMK A01 T00921024  RH  044%=      5-min Rain = 0
KMNS 191820Z 35011KT 09/M03 A3032 RMK A01 T00931026  RH  043%=      5-min Rain = 0
KMNS 191825Z 34012G17KT 09/M03 A3032 RMK A01 T00941027  RH  043%=      5-min Rain = 0
KMNS 191830Z 35013KT 09/M03 A3032 RMK A01 T00941029  RH  042%=      5-min Rain = 0
KMNS 191835Z 33011G16KT 10/M03 A3032 RMK A01 T00961030  RH  041%=      5-min Rain = 0
KMNS 191840Z 34011KT 10/M03 A3032 RMK A01 T00991029  RH  041%=      5-min Rain = 0
KMNS 191845Z 32010G15KT 10/M03 A3031 RMK A01 T01001029  RH  041%=      5-min Rain = 0
KMNS 191850Z 34011G16KT 10/M03 A3031 RMK A01 T01001030  RH  040%=      5-min Rain = 0
KMNS 191855Z 33009KT 10/M03 A3031 RMK A01 T01031028  RH  040%=      5-min Rain = 0
KMNS 191900Z 32010G15KT 10/M03 A3031 RMK A01 T01021030  RH  040%=      5-min Rain = 0
KMNS 191905Z 32010KT 10/M03 A303 RMK A01 T01001033  RH  039%=      5-min Rain = 0
KMNS 191910Z 31008KT 10/M03 A303 RMK A01 T01011031  RH  040%=      5-min Rain = 0
KMNS 191915Z 32009G14KT 10/M03 A303 RMK A01 T01031033  RH  039%=      5-min Rain = 0
KMNS 191920Z 32008G13KT 11/M03 A303 RMK A01 T01061031  RH  038%=      5-min Rain = 0
KMNS 191925Z 30007KT 11/M03 A303 RMK A01 T01071034  RH  037%=      5-min Rain = 0
KMNS 191930Z 30007KT 11/M03 A303 RMK A01 T01091032  RH  037%=      5-min Rain = 0
KMNS 191935Z 34006KT 11/M03 A3029 RMK A01 T01101032  RH  037%=      5-min Rain = 0
KMNS 191940Z 30008G13KT 11/M03 A3029 RMK A01 T01101034  RH  037%=      5-min Rain = 0
KMNS 191945Z 30008KT 11/M04 A3029 RMK A01 T01111037  RH  036%=      5-min Rain = 0
KMNS 191950Z 30005G10KT 11/M04 A3028 RMK A01 T01081037  RH  036%=      5-min Rain = 0
KMNS 191955Z 29008KT 11/M04 A3028 RMK A01 T01121035  RH  036%=      5-min Rain = 0
KMNS 192000Z 33007KT 12/M04 A3028 RMK A01 T01151036  RH  035%=      5-min Rain = 0
KMNS 192005Z 29007G12KT 12/M04 A3028 RMK A01 T01151035  RH  035%=      5-min Rain = 0
KMNS 192010Z 31006G12KT 11/M04 A3027 RMK A01 T01141036  RH  035%=      5-min Rain = 0
KMNS 192015Z 31008G13KT 11/M04 A3027 RMK A01 T01141040  RH  034%=      5-min Rain = 0
KMNS 192020Z 27004KT 11/M04 A3027 RMK A01 T01121042  RH  034%=      5-min Rain = 0
KMNS 192025Z 27006G14KT 12/M04 A3027 RMK A01 T01171037  RH  034%=      5-min Rain = 0
KMNS 192030Z 26007KT 11/M04 A3027 RMK A01 T01141039  RH  034%=      5-min Rain = 0
KMNS 192035Z 29009KT 12/M04 A3027 RMK A01 T01161042  RH  033%=      5-min Rain = 0
KMNS 192040Z 28005KT 12/M04 A3026 RMK A01 T01161040  RH  034%=      5-min Rain = 0
KMNS 192045Z 25007KT 12/M04 A3026 RMK A01 T01171035  RH  035%=      5-min Rain = 0
KMNS 192050Z 23005G10KT 11/M04 A3026 RMK A01 T01141037  RH  035%=      5-min Rain = 0
KMNS 192055Z 27009KT 12/M04 A3026 RMK A01 T01181040  RH  033%=      5-min Rain = 0
KMNS 192100Z 28007KT 12/M04 A3026 RMK A01 T01171043  RH  033%=      5-min Rain = 0
KMNS 192105Z 27008KT 12/M04 A3026 RMK A01 T01171041  RH  033%=      5-min Rain = 0
KMNS 192110Z 31004G10KT 12/M04 A3026 RMK A01 T01151043  RH  033%=      5-min Rain = 0
KMNS 192115Z 25006KT 12/M04 A3026 RMK A01 T01211043  RH  032%=      5-min Rain = 0
KMNS 192120Z 29008G13KT 12/M05 A3026 RMK A01 T01211047  RH  031%=      5-min Rain = 0
KMNS 192125Z 29006KT 12/M05 A3026 RMK A01 T01191049  RH  031%=      5-min Rain = 0
KMNS 192130Z 30006KT 12/M05 A3025 RMK A01 T01181053  RH  030%=      5-min Rain = 0
KMNS 192135Z 29006KT 12/M05 A3025 RMK A01 T01201053  RH  030%=      5-min Rain = 0
KMNS 192140Z 31003KT 12/M05 A3025 RMK A01 T01191053  RH  030%=      5-min Rain = 0
KMNS 192145Z 31003KT 12/M05 A3025 RMK A01 T01231053  RH  029%=      5-min Rain = 0
KMNS 192150Z 32003KT 12/M06 A3025 RMK A01 T01241061  RH  027%=      5-min Rain = 0
KMNS 192155Z 30004KT 12/M06 A3025 RMK A01 T01231063  RH  027%=      5-min Rain = 0
KMNS 192200Z 32005KT 12/M06 A3025 RMK A01 T01231064  RH  027%=      5-min Rain = 0
KMNS 192205Z 34005KT 12/M06 A3025 RMK A01 T01221061  RH  027%=      5-min Rain = 0
KMNS 192210Z 34005KT 12/M06 A3024 RMK A01 T01211060  RH  028%=      5-min Rain = 0
KMNS 192215Z 28004KT 12/M06 A3024 RMK A01 T01221061  RH  028%=      5-min Rain = 0
KMNS 192220Z 24003KT 12/M06 A3024 RMK A01 T01241059  RH  027%=      5-min Rain = 0
KMNS 192225Z 24004KT 13/M06 A3024 RMK A01 T01251060  RH  027%=      5-min Rain = 0
KMNS 192230Z 21003KT 12/M06 A3024 RMK A01 T01221061  RH  027%=      5-min Rain = 0
KMNS 192235Z 18002KT 12/M06 A3024 RMK A01 T01241060  RH  027%=      5-min Rain = 0
KMNS 192240Z 25003KT 13/M06 A3024 RMK A01 T01261058  RH  027%=      5-min Rain = 0
KMNS 192245Z 28002KT 13/M06 A3025 RMK A01 T01261060  RH  027%=      5-min Rain = 0
KMNS 192250Z 24002KT 13/M06 A3025 RMK A01 T01261060  RH  027%=      5-min Rain = 0
KMNS 192255Z 27001KT 13/M06 A3024 RMK A01 T01251059  RH  027%=      5-min Rain = 0
KMNS 192300Z 30001KT 13/M06 A3024 RMK A01 T01281058  RH  027%=      5-min Rain = 0
KMNS 192305Z 30001KT 13/M06 A3024 RMK A01 T01251061  RH  027%=      5-min Rain = 0
KMNS 192310Z 27001KT 13/M06 A3024 RMK A01 T01261060  RH  027%=      5-min Rain = 0
KMNS 192315Z 29001KT 13/M06 A3024 RMK A01 T01261061  RH  027%=      5-min Rain = 0
KMNS 192320Z 31002KT 12/M06 A3024 RMK A01 T01241061  RH  027%=      5-min Rain = 0
KMNS 192325Z 33001KT 12/M06 A3024 RMK A01 T01211061  RH  028%=      5-min Rain = 0
KMNS 192330Z 36000KT 12/M06 A3024 RMK A01 T01211060  RH  028%=      5-min Rain = 0
KMNS 192335Z 01001KT 12/M06 A3024 RMK A01 T01191060  RH  028%=      5-min Rain = 0
KMNS 192340Z 01001KT 12/M06 A3024 RMK A01 T01171060  RH  028%=      5-min Rain = 0
KMNS 192345Z 02001KT 12/M06 A3024 RMK A01 T01161060  RH  029%=      5-min Rain = 0
KMNS 192350Z 08000KT 11/M06 A3024 RMK A01 T01141060  RH  029%=      5-min Rain = 0
KMNS 192355Z 10001KT 11/M06 A3024 RMK A01 T01101060  RH  030%=      5-min Rain = 0
KMNS 200000Z 10002KT 11/M06 A3024 RMK A01 T01071059  RH  030%=      5-min Rain = 0
KMNS 200005Z 12002KT 11/M06 A3024 RMK A01 T01061059  RH  031%=      5-min Rain = 0
KMNS 200010Z 12002KT 10/M06 A3024 RMK A01 T01031060  RH  031%=      5-min Rain = 0
KMNS 200015Z 12004KT 10/M06 A3024 RMK A01 T00981059  RH  033%=      5-min Rain = 0
KMNS 200020Z 12005KT 08/M06 A3024 RMK A01 T00841059  RH  036%=      5-min Rain = 0
KMNS 200025Z 12005KT 08/M06 A3024 RMK A01 T00781058  RH  038%=      5-min Rain = 0
KMNS 200030Z 12006KT 08/M06 A3024 RMK A01 T00761058  RH  038%=      5-min Rain = 0
KMNS 200035Z 11005KT 07/M06 A3024 RMK A01 T00711059  RH  039%=      5-min Rain = 0
KMNS 200040Z 13006KT 07/M06 A3025 RMK A01 T00661060  RH  040%=      5-min Rain = 0
KMNS 200045Z 13006KT 07/M06 A3025 RMK A01 T00651058  RH  041%=      5-min Rain = 0
KMNS 200050Z 13006KT 07/M06 A3025 RMK A01 T00661059  RH  041%=      5-min Rain = 0
KMNS 200055Z 13005KT 07/M06 A3025 RMK A01 T00671059  RH  040%=      5-min Rain = 0
KMNS 200100Z 12006KT 07/M06 A3025 RMK A01 T00691059  RH  040%=      5-min Rain = 0
KMNS 200105Z 12005KT 06/M06 A3025 RMK A01 T00641060  RH  041%=      5-min Rain = 0
KMNS 200110Z 13005KT 06/M06 A3025 RMK A01 T00591059  RH  042%=      5-min Rain = 0
KMNS 200115Z 13006KT 06/M06 A3025 RMK A01 T00571060  RH  043%=      5-min Rain = 0
KMNS 200120Z 14007KT 06/M06 A3024 RMK A01 T00551058  RH  044%=      5-min Rain = 0
KMNS 200125Z 13007KT 06/M06 A3023 RMK A01 T00571057  RH  044%=      5-min Rain = 0
KMNS 200130Z 13007KT 05/M06 A3023 RMK A01 T00521059  RH  045%=      5-min Rain = 0
KMNS 200135Z 13007KT 05/M06 A3023 RMK A01 T00471059  RH  046%=      5-min Rain = 0
KMNS 200140Z 14006KT 04/M06 A3023 RMK A01 T00431060  RH  047%=      5-min Rain = 0
KMNS 200145Z 11006KT 04/M06 A3024 RMK A01 T00351062  RH  049%=      5-min Rain = 0
KMNS 200150Z 11005KT 03/M07 A3024 RMK A01 T00291065  RH  050%=      5-min Rain = 0
KMNS 200155Z 11005KT 03/M06 A3024 RMK A01 T00301064  RH  050%=      5-min Rain = 0
KMNS 200200Z 11005KT 03/M06 A3025 RMK A01 T00321064  RH  049%=      5-min Rain = 0
KMNS 200205Z 12005KT 03/M06 A3025 RMK A01 T00311062  RH  050%=      5-min Rain = 0
KMNS 200210Z 13005KT 03/M06 A3027 RMK A01 T00321060  RH  051%=      5-min Rain = 0
KMNS 200215Z 13004KT 03/M06 A3026 RMK A01 T00331059  RH  051%=      5-min Rain = 0
KMNS 200220Z 15004KT 03/M06 A3027 RMK A01 T00321059  RH  051%=      5-min Rain = 0
KMNS 200225Z 16005KT 03/M06 A3027 RMK A01 T00301059  RH  052%=      5-min Rain = 0
KMNS 200230Z 16004KT 03/M06 A3027 RMK A01 T00261062  RH  052%=      5-min Rain = 0
KMNS 200235Z 16004KT 02/M06 A3027 RMK A01 T00221062  RH  054%=      5-min Rain = 0
KMNS 200240Z 16005KT 02/M06 A3027 RMK A01 T00231057  RH  056%=      5-min Rain = 0
KMNS 200245Z 17004KT 02/M06 A3028 RMK A01 T00241056  RH  056%=      5-min Rain = 0
KMNS 200250Z 16005KT 02/M06 A3027 RMK A01 T00221057  RH  056%=      5-min Rain = 0
KMNS 200255Z 16005KT 02/M05 A3026 RMK A01 T00191054  RH  058%=      5-min Rain = 0
KMNS 200300Z 16005KT 02/M05 A3026 RMK A01 T00231051  RH  058%=      5-min Rain = 0
KMNS 200305Z 16006KT 03/M05 A3026 RMK A01 T00271050  RH  057%=      5-min Rain = 0
KMNS 200310Z 16006KT 03/M05 A3025 RMK A01 T00271052  RH  057%=      5-min Rain = 0
KMNS 200315Z 17006KT 02/M05 A3026 RMK A01 T00241054  RH  056%=      5-min Rain = 0
KMNS 200320Z 16005KT 02/M06 A3026 RMK A01 T00231055  RH  057%=      5-min Rain = 0
KMNS 200325Z 16005KT 02/M05 A3026 RMK A01 T00241053  RH  057%=      5-min Rain = 0
KMNS 200330Z 18006KT 02/M05 A3026 RMK A01 T00221054  RH  057%=      5-min Rain = 0
KMNS 200335Z 17006KT 02/M05 A3026 RMK A01 T00171054  RH  060%=      5-min Rain = 0
KMNS 200340Z 17006KT 01/M05 A3025 RMK A01 T00141052  RH  062%=      5-min Rain = 0
KMNS 200345Z 17007KT 02/M05 A3025 RMK A01 T00151049  RH  062%=      5-min Rain = 0
KMNS 200350Z 17006KT 02/M04 A3026 RMK A01 T00231044  RH  061%=      5-min Rain = 0
KMNS 200355Z 17007KT 02/M05 A3026 RMK A01 T00221047  RH  060%=      5-min Rain = 0
KMNS 200400Z 17006KT 02/M05 A3026 RMK A01 T00191048  RH  061%=      5-min Rain = 0
KMNS 200405Z 18007KT 02/M05 A3026 RMK A01 T00161049  RH  062%=      5-min Rain = 0
KMNS 200410Z 18006KT 01/M05 A3026 RMK A01 T00141050  RH  063%=      5-min Rain = 0
KMNS 200415Z 18007KT 01/M05 A3026 RMK A01 T00081053  RH  064%=      5-min Rain = 0
KMNS 200420Z 18007KT 01/M05 A3026 RMK A01 T00061052  RH  065%=      5-min Rain = 0
KMNS 200425Z 18006KT 01/M05 A3026 RMK A01 T00071051  RH  065%=      5-min Rain = 0
KMNS 200430Z 19008KT 01/M05 A3026 RMK A01 T00061051  RH  066%=      5-min Rain = 0
KMNS 200435Z 19008KT 00/M05 A3026 RMK A01 T00041050  RH  067%=      5-min Rain = 0
KMNS 200440Z 18008KT 00/M05 A3025 RMK A01 T00031050  RH  068%=      5-min Rain = 0
KMNS 200445Z 18008KT 00/M05 A3025 RMK A01 T00031051  RH  068%=      5-min Rain = 0
KMNS 200450Z 18007KT 00/M05 A3025 RMK A01 T00041049  RH  068%=      5-min Rain = 0
KMNS 200455Z 18008KT 01/M05 A3025 RMK A01 T00081047  RH  067%=      5-min Rain = 0
KMNS 200500Z 18008KT 01/M05 A3025 RMK A01 T00111046  RH  066%=      5-min Rain = 0
KMNS 200505Z 18007KT 01/M05 A3025 RMK A01 T00141046  RH  065%=      5-min Rain = 0
KMNS 200510Z 18007KT 01/M05 A3025 RMK A01 T00141046  RH  064%=      5-min Rain = 0
KMNS 200515Z 18007KT 01/M05 A3026 RMK A01 T00121047  RH  065%=      5-min Rain = 0
KMNS 200520Z 17007KT 01/M05 A3026 RMK A01 T00131047  RH  064%=      5-min Rain = 0
KMNS 200525Z 17007KT 01/M05 A3026 RMK A01 T00141047  RH  064%=      5-min Rain = 0
KMNS 200530Z 17006KT 01/M05 A3027 RMK A01 T00131049  RH  064%=      5-min Rain = 0
KMNS 200535Z 16006KT 01/M05 A3027 RMK A01 T00101051  RH  064%=      5-min Rain = 0
KMNS 200540Z 16005KT 00/M06 A3027 RMK A01 T00041055  RH  065%=      5-min Rain = 0
KMNS 200545Z 17004KT M01/M06 A3027 RMK A01 T10071059  RH  068%=      5-min Rain = 0
KMNS 200550Z 16005KT M00/M06 A3027 RMK A01 T10041056  RH  068%=      5-min Rain = 0
KMNS 200555Z 17005KT M00/M05 A3027 RMK A01 T10031054  RH  069%=      5-min Rain = 0

Page generated in 0.0102 seconds.